sensor_id;sensor_type;location;lat;lon;timestamp;pressure;altitude;pressure_sealevel;temperature;humidity
64298;BME280;50639;53.270;7.956;2023-02-18T00:00:10;103896.47;;;7.21;100.00
64298;BME280;50639;53.270;7.956;2023-02-18T00:02:36;103882.94;;;7.23;100.00
64298;BME280;50639;53.270;7.956;2023-02-18T00:05:01;104009.09;;;7.29;100.00
64298;BME280;50639;53.270;7.956;2023-02-18T00:07:27;103975.16;;;7.30;100.00
64298;BME280;50639;53.270;7.956;2023-02-18T00:09:52;104048.00;;;7.33;100.00
64298;BME280;50639;53.270;7.956;2023-02-18T00:12:18;104125.25;;;7.38;100.00
64298;BME280;50639;53.270;7.956;2023-02-18T00:14:43;104198.00;;;7.43;100.00
64298;BME280;50639;53.270;7.956;2023-02-18T00:17:09;104150.81;;;7.42;100.00
64298;BME280;50639;53.270;7.956;2023-02-18T00:19:34;104203.38;;;7.43;100.00
64298;BME280;50639;53.270;7.956;2023-02-18T00:21:59;104171.22;;;7.43;100.00
64298;BME280;50639;53.270;7.956;2023-02-18T00:24:25;104301.22;;;7.47;100.00
64298;BME280;50639;53.270;7.956;2023-02-18T00:26:51;104264.59;;;7.47;100.00
64298;BME280;50639;53.270;7.956;2023-02-18T00:29:18;104344.66;;;7.50;100.00
64298;BME280;50639;53.270;7.956;2023-02-18T00:31:43;104313.50;;;7.49;100.00
64298;BME280;50639;53.270;7.956;2023-02-18T00:34:11;104348.91;;;7.53;100.00
64298;BME280;50639;53.270;7.956;2023-02-18T00:36:36;104373.03;;;7.53;100.00
64298;BME280;50639;53.270;7.956;2023-02-18T00:39:04;104468.09;;;7.58;100.00
64298;BME280;50639;53.270;7.956;2023-02-18T00:41:31;104396.91;;;7.56;100.00
64298;BME280;50639;53.270;7.956;2023-02-18T00:43:57;104424.41;;;7.58;100.00
64298;BME280;50639;53.270;7.956;2023-02-18T00:46:24;104463.47;;;7.60;100.00
64298;BME280;50639;53.270;7.956;2023-02-18T00:48:52;104481.13;;;7.63;100.00
64298;BME280;50639;53.270;7.956;2023-02-18T00:51:18;104447.31;;;7.62;100.00
64298;BME280;50639;53.270;7.956;2023-02-18T00:53:46;104512.19;;;7.66;100.00
64298;BME280;50639;53.270;7.956;2023-02-18T00:56:13;104434.63;;;7.64;100.00
64298;BME280;50639;53.270;7.956;2023-02-18T00:58:40;104537.78;;;7.70;100.00
64298;BME280;50639;53.270;7.956;2023-02-18T01:01:07;104556.41;;;7.71;100.00
64298;BME280;50639;53.270;7.956;2023-02-18T01:03:34;104586.59;;;7.73;100.00
64298;BME280;50639;53.270;7.956;2023-02-18T01:06:00;104525.13;;;7.72;100.00
64298;BME280;50639;53.270;7.956;2023-02-18T01:08:25;104634.59;;;7.76;100.00
64298;BME280;50639;53.270;7.956;2023-02-18T01:10:53;104673.59;;;7.80;100.00
64298;BME280;50639;53.270;7.956;2023-02-18T01:13:19;104652.16;;;7.80;100.00
64298;BME280;50639;53.270;7.956;2023-02-18T01:15:44;104672.53;;;7.83;100.00
64298;BME280;50639;53.270;7.956;2023-02-18T01:18:11;104663.63;;;7.82;100.00
64298;BME280;50639;53.270;7.956;2023-02-18T01:20:39;104705.41;;;7.85;100.00
64298;BME280;50639;53.270;7.956;2023-02-18T01:23:06;104747.09;;;7.89;100.00
64298;BME280;50639;53.270;7.956;2023-02-18T01:25:32;104727.47;;;7.88;100.00
64298;BME280;50639;53.270;7.956;2023-02-18T01:27:59;104779.97;;;7.91;100.00
64298;BME280;50639;53.270;7.956;2023-02-18T01:30:25;104752.31;;;7.90;100.00
64298;BME280;50639;53.270;7.956;2023-02-18T01:32:50;104762.06;;;7.91;100.00
64298;BME280;50639;53.270;7.956;2023-02-18T01:35:18;104763.78;;;7.92;100.00
64298;BME280;50639;53.270;7.956;2023-02-18T01:37:44;104813.72;;;7.93;100.00
64298;BME280;50639;53.270;7.956;2023-02-18T01:40:12;104823.38;;;7.96;100.00
64298;BME280;50639;53.270;7.956;2023-02-18T01:42:38;104861.75;;;7.96;100.00
64298;BME280;50639;53.270;7.956;2023-02-18T01:48:10;104879.44;;;7.99;100.00
64298;BME280;50639;53.270;7.956;2023-02-18T01:50:41;104992.53;;;8.04;100.00
64298;BME280;50639;53.270;7.956;2023-02-18T01:53:07;105029.94;;;8.05;100.00
64298;BME280;50639;53.270;7.956;2023-02-18T01:55:34;105070.06;;;8.07;100.00
64298;BME280;50639;53.270;7.956;2023-02-18T01:58:01;104994.25;;;8.05;100.00
64298;BME280;50639;53.270;7.956;2023-02-18T02:00:28;105018.28;;;8.06;100.00
64298;BME280;50639;53.270;7.956;2023-02-18T02:02:53;105024.38;;;8.08;100.00
64298;BME280;50639;53.270;7.956;2023-02-18T02:05:20;105017.22;;;8.09;100.00
64298;BME280;50639;53.270;7.956;2023-02-18T02:07:49;105018.91;;;8.10;100.00
64298;BME280;50639;53.270;7.956;2023-02-18T02:10:16;105152.66;;;8.14;100.00
64298;BME280;50639;53.270;7.956;2023-02-18T02:13:01;105081.19;;;8.13;100.00
64298;BME280;50639;53.270;7.956;2023-02-18T02:24:44;105090.84;;;8.16;100.00
64298;BME280;50639;53.270;7.956;2023-02-18T02:27:20;105140.75;;;8.18;100.00
64298;BME280;50639;53.270;7.956;2023-02-18T02:30:30;105130.00;;;8.18;100.00
64298;BME280;50639;53.270;7.956;2023-02-18T02:33:22;105230.72;;;8.22;100.00
64298;BME280;50639;53.270;7.956;2023-02-18T02:41:33;105111.00;;;8.21;100.00
64298;BME280;50639;53.270;7.956;2023-02-18T02:44:29;105169.81;;;8.24;100.00
64298;BME280;50639;53.270;7.956;2023-02-18T02:47:07;105168.03;;;8.25;100.00
64298;BME280;50639;53.270;7.956;2023-02-18T02:49:46;105192.91;;;8.27;100.00
64298;BME280;50639;53.270;7.956;2023-02-18T02:52:29;105101.03;;;8.23;100.00
64298;BME280;50639;53.270;7.956;2023-02-18T02:55:07;105067.91;;;8.24;100.00
64298;BME280;50639;53.270;7.956;2023-02-18T02:57:56;105158.81;;;8.29;100.00
64298;BME280;50639;53.270;7.956;2023-02-18T03:03:25;105159.63;;;8.29;100.00
64298;BME280;50639;53.270;7.956;2023-02-18T03:09:03;105242.28;;;8.37;100.00
64298;BME280;50639;53.270;7.956;2023-02-18T03:15:04;105177.03;;;8.36;100.00
64298;BME280;50639;53.270;7.956;2023-02-18T03:17:45;105123.38;;;8.36;100.00
64298;BME280;50639;53.270;7.956;2023-02-18T03:20:21;105119.75;;;8.37;100.00
64298;BME280;50639;53.270;7.956;2023-02-18T03:22:50;105150.09;;;8.38;100.00
64298;BME280;50639;53.270;7.956;2023-02-18T03:25:17;105224.00;;;8.42;100.00
64298;BME280;50639;53.270;7.956;2023-02-18T03:27:57;105193.69;;;8.42;100.00
64298;BME280;50639;53.270;7.956;2023-02-18T03:30:30;105265.69;;;8.48;100.00
64298;BME280;50639;53.270;7.956;2023-02-18T03:33:13;105240.66;;;8.47;100.00
64298;BME280;50639;53.270;7.956;2023-02-18T03:35:41;105328.13;;;8.50;100.00
64298;BME280;50639;53.270;7.956;2023-02-18T03:38:23;105283.47;;;8.49;100.00
64298;BME280;50639;53.270;7.956;2023-02-18T03:40:51;105242.28;;;8.50;100.00
64298;BME280;50639;53.270;7.956;2023-02-18T03:43:33;105267.19;;;8.52;100.00
64298;BME280;50639;53.270;7.956;2023-02-18T03:45:59;105284.97;;;8.53;100.00
64298;BME280;50639;53.270;7.956;2023-02-18T03:48:25;105392.00;;;8.57;100.00
64298;BME280;50639;53.270;7.956;2023-02-18T03:50:53;105334.78;;;8.57;100.00
64298;BME280;50639;53.270;7.956;2023-02-18T03:53:18;105379.34;;;8.59;100.00
64298;BME280;50639;53.270;7.956;2023-02-18T03:55:44;105405.13;;;8.62;100.00
64298;BME280;50639;53.270;7.956;2023-02-18T03:58:09;105306.88;;;8.59;100.00
64298;BME280;50639;53.270;7.956;2023-02-18T04:00:39;105324.63;;;8.62;100.00
64298;BME280;50639;53.270;7.956;2023-02-18T04:03:05;105282.63;;;8.61;100.00
64298;BME280;50639;53.270;7.956;2023-02-18T04:05:30;105454.81;;;8.67;100.00
64298;BME280;50639;53.270;7.956;2023-02-18T04:08:13;105500.16;;;8.72;100.00
64298;BME280;50639;53.270;7.956;2023-02-18T04:10:39;105456.34;;;8.71;100.00
64298;BME280;50639;53.270;7.956;2023-02-18T04:13:14;104952.09;;;8.56;100.00
64298;BME280;50639;53.270;7.956;2023-02-18T04:15:40;104984.03;;;8.59;100.00
64298;BME280;50639;53.270;7.956;2023-02-18T04:18:05;105041.13;;;8.61;100.00
64298;BME280;50639;53.270;7.956;2023-02-18T04:20:33;105016.03;;;8.62;100.00
64298;BME280;50639;53.270;7.956;2023-02-18T04:23:08;104873.19;;;8.58;100.00
64298;BME280;50639;53.270;7.956;2023-02-18T04:25:33;104762.44;;;8.56;100.00
64298;BME280;50639;53.270;7.956;2023-02-18T04:28:05;104651.84;;;8.53;100.00
64298;BME280;50639;53.270;7.956;2023-02-18T04:30:30;104609.91;;;8.52;100.00
64298;BME280;50639;53.270;7.956;2023-02-18T04:32:56;104539.19;;;8.53;100.00
64298;BME280;50639;53.270;7.956;2023-02-18T04:35:22;104433.84;;;8.51;100.00
64298;BME280;50639;53.270;7.956;2023-02-18T04:37:47;104378.50;;;8.50;100.00
64298;BME280;50639;53.270;7.956;2023-02-18T04:40:13;104137.66;;;8.44;100.00
64298;BME280;50639;53.270;7.956;2023-02-18T04:42:39;104101.78;;;8.45;100.00
64298;BME280;50639;53.270;7.956;2023-02-18T04:45:04;104044.63;;;8.44;100.00
64298;BME280;50639;53.270;7.956;2023-02-18T04:47:30;104131.03;;;8.48;100.00
64298;BME280;50639;53.270;7.956;2023-02-18T04:49:56;104088.13;;;8.48;100.00
64298;BME280;50639;53.270;7.956;2023-02-18T04:52:32;104087.00;;;8.50;100.00
64298;BME280;50639;53.270;7.956;2023-02-18T04:54:57;104113.69;;;8.52;100.00
64298;BME280;50639;53.270;7.956;2023-02-18T04:57:23;103993.97;;;8.51;100.00
64298;BME280;50639;53.270;7.956;2023-02-18T04:59:51;103852.13;;;8.48;100.00
64298;BME280;50639;53.270;7.956;2023-02-18T05:02:16;103766.44;;;8.46;100.00
64298;BME280;50639;53.270;7.956;2023-02-18T05:04:44;103780.44;;;8.50;100.00
64298;BME280;50639;53.270;7.956;2023-02-18T05:07:10;103665.41;;;8.47;100.00
64298;BME280;50639;53.270;7.956;2023-02-18T05:09:35;103666.81;;;8.51;100.00
64298;BME280;50639;53.270;7.956;2023-02-18T05:12:05;103672.72;;;8.54;100.00
64298;BME280;50639;53.270;7.956;2023-02-18T05:14:31;103576.16;;;8.54;100.00
64298;BME280;50639;53.270;7.956;2023-02-18T05:16:56;103499.41;;;8.53;100.00
64298;BME280;50639;53.270;7.956;2023-02-18T05:19:22;103546.22;;;8.59;100.00
64298;BME280;50639;53.270;7.956;2023-02-18T05:21:47;103440.94;;;8.57;100.00
64298;BME280;50639;53.270;7.956;2023-02-18T05:24:45;103398.72;;;8.59;100.00
64298;BME280;50639;53.270;7.956;2023-02-18T05:27:11;103224.75;;;8.56;100.00
64298;BME280;50639;53.270;7.956;2023-02-18T05:29:39;103255.59;;;8.60;100.00
64298;BME280;50639;53.270;7.956;2023-02-18T05:32:04;103259.50;;;8.65;100.00
64298;BME280;50639;53.270;7.956;2023-02-18T05:34:32;103189.78;;;8.65;100.00
64298;BME280;50639;53.270;7.956;2023-02-18T05:36:58;103209.56;;;8.72;100.00
64298;BME280;50639;53.270;7.956;2023-02-18T05:39:26;103148.75;;;8.73;100.00
64298;BME280;50639;53.270;7.956;2023-02-18T05:42:01;102954.94;;;8.71;100.00
64298;BME280;50639;53.270;7.956;2023-02-18T05:44:26;102844.97;;;8.71;100.00
64298;BME280;50639;53.270;7.956;2023-02-18T05:46:59;102819.50;;;8.75;100.00
64298;BME280;50639;53.270;7.956;2023-02-18T05:49:27;102641.81;;;8.73;100.00
64298;BME280;50639;53.270;7.956;2023-02-18T05:51:56;102660.94;;;8.78;100.00
64298;BME280;50639;53.270;7.956;2023-02-18T05:54:27;102602.75;;;8.78;100.00
64298;BME280;50639;53.270;7.956;2023-02-18T05:56:53;102535.19;;;8.83;100.00
64298;BME280;50639;53.270;7.956;2023-02-18T05:59:22;102217.13;;;8.74;100.00
64298;BME280;50639;53.270;7.956;2023-02-18T06:01:48;102202.34;;;8.78;100.00
64298;BME280;50639;53.270;7.956;2023-02-18T06:04:18;102097.75;;;8.78;100.00
64298;BME280;50639;53.270;7.956;2023-02-18T06:06:46;102103.38;;;8.83;100.00
64298;BME280;50639;53.270;7.956;2023-02-18T06:09:12;102064.09;;;8.90;100.00
64298;BME280;50639;53.270;7.956;2023-02-18T06:11:40;101994.34;;;8.90;100.00
64298;BME280;50639;53.270;7.956;2023-02-18T06:14:06;101782.63;;;8.88;100.00
64298;BME280;50639;53.270;7.956;2023-02-18T06:16:32;101646.91;;;8.87;100.00
64298;BME280;50639;53.270;7.956;2023-02-18T06:18:58;101375.41;;;8.79;100.00
64298;BME280;50639;53.270;7.956;2023-02-18T06:21:31;101121.34;;;8.74;100.00
64298;BME280;50639;53.270;7.956;2023-02-18T06:23:59;100985.47;;;8.68;100.00
64298;BME280;50639;53.270;7.956;2023-02-18T06:26:27;100953.72;;;8.72;100.00
64298;BME280;50639;53.270;7.956;2023-02-18T06:28:55;100897.00;;;8.75;100.00
64298;BME280;50639;53.270;7.956;2023-02-18T06:31:22;100713.53;;;8.64;100.00
64298;BME280;50639;53.270;7.956;2023-02-18T06:33:48;100855.75;;;8.76;100.00
64298;BME280;50639;53.270;7.956;2023-02-18T06:36:14;100911.97;;;8.89;100.00
64298;BME280;50639;53.270;7.956;2023-02-18T06:38:43;100879.31;;;8.98;100.00
64298;BME280;50639;53.270;7.956;2023-02-18T06:41:10;100599.47;;;8.93;100.00
64298;BME280;50639;53.270;7.956;2023-02-18T06:43:36;100505.72;;;8.86;100.00
64298;BME280;50639;53.270;7.956;2023-02-18T06:46:07;100669.19;;;8.93;100.00
64298;BME280;50639;53.270;7.956;2023-02-18T06:48:35;100555.38;;;8.89;100.00
64298;BME280;50639;53.270;7.956;2023-02-18T06:51:05;100474.25;;;8.82;100.00
64298;BME280;50639;53.270;7.956;2023-02-18T06:53:36;100628.38;;;8.91;100.00
64298;BME280;50639;53.270;7.956;2023-02-18T06:56:01;100474.13;;;8.88;100.00
64298;BME280;50639;53.270;7.956;2023-02-18T06:58:34;100319.22;;;8.79;100.00
64298;BME280;50639;53.270;7.956;2023-02-18T07:01:02;100425.09;;;8.88;100.00
64298;BME280;50639;53.270;7.956;2023-02-18T07:03:28;100194.06;;;8.79;100.00
64298;BME280;50639;53.270;7.956;2023-02-18T07:05:56;100468.69;;;8.95;100.00
64298;BME280;50639;53.270;7.956;2023-02-18T07:08:26;100500.38;;;9.04;100.00
64298;BME280;50639;53.270;7.956;2023-02-18T07:11:02;100496.97;;;9.09;100.00
64298;BME280;50639;53.270;7.956;2023-02-18T07:13:28;100447.00;;;9.14;100.00
64298;BME280;50639;53.270;7.956;2023-02-18T07:15:57;100342.50;;;9.08;100.00
64298;BME280;50639;53.270;7.956;2023-02-18T07:18:24;100374.09;;;9.06;100.00
64298;BME280;50639;53.270;7.956;2023-02-18T07:20:50;100343.34;;;9.08;100.00
64298;BME280;50639;53.270;7.956;2023-02-18T07:23:18;100385.53;;;9.13;100.00
64298;BME280;50639;53.270;7.956;2023-02-18T07:26:08;100471.34;;;9.13;100.00
64298;BME280;50639;53.270;7.956;2023-02-18T07:28:36;100317.31;;;9.09;100.00
64298;BME280;50639;53.270;7.956;2023-02-18T07:31:22;100456.59;;;9.22;100.00
64298;BME280;50639;53.270;7.956;2023-02-18T07:33:47;100451.34;;;9.27;100.00
64298;BME280;50639;53.270;7.956;2023-02-18T07:36:13;100447.75;;;9.33;100.00
64298;BME280;50639;53.270;7.956;2023-02-18T07:38:38;100429.34;;;9.37;100.00
64298;BME280;50639;53.270;7.956;2023-02-18T07:41:21;100420.16;;;9.44;100.00
64298;BME280;50639;53.270;7.956;2023-02-18T07:43:49;100349.81;;;9.54;100.00
64298;BME280;50639;53.270;7.956;2023-02-18T07:46:18;100299.75;;;9.59;100.00
64298;BME280;50639;53.270;7.956;2023-02-18T07:48:44;100870.13;;;9.68;100.00
64298;BME280;50639;53.270;7.956;2023-02-18T07:51:12;100832.72;;;9.73;100.00
64298;BME280;50639;53.270;7.956;2023-02-18T07:53:40;100773.19;;;9.76;100.00
64298;BME280;50639;53.270;7.956;2023-02-18T07:56:05;100732.63;;;9.84;100.00
64298;BME280;50639;53.270;7.956;2023-02-18T07:58:33;100665.66;;;9.89;100.00
64298;BME280;50639;53.270;7.956;2023-02-18T08:01:07;100613.72;;;9.95;100.00
64298;BME280;50639;53.270;7.956;2023-02-18T08:03:35;100561.03;;;9.94;100.00
64298;BME280;50639;53.270;7.956;2023-02-18T08:06:03;100498.22;;;9.95;100.00
64298;BME280;50639;53.270;7.956;2023-02-18T08:08:32;100528.47;;;10.02;100.00
64298;BME280;50639;53.270;7.956;2023-02-18T08:11:01;100589.31;;;10.08;100.00
64298;BME280;50639;53.270;7.956;2023-02-18T08:13:33;100566.13;;;10.14;100.00
64298;BME280;50639;53.270;7.956;2023-02-18T08:16:03;100570.22;;;10.17;100.00
64298;BME280;50639;53.270;7.956;2023-02-18T08:18:29;100561.94;;;10.18;100.00
64298;BME280;50639;53.270;7.956;2023-02-18T08:20:57;100575.84;;;10.27;100.00
64298;BME280;50639;53.270;7.956;2023-02-18T08:23:23;100543.38;;;10.28;100.00
64298;BME280;50639;53.270;7.956;2023-02-18T08:25:52;100518.72;;;10.31;100.00
64298;BME280;50639;53.270;7.956;2023-02-18T08:28:20;100530.88;;;10.34;100.00
64298;BME280;50639;53.270;7.956;2023-02-18T08:30:52;100507.03;;;10.37;100.00
64298;BME280;50639;53.270;7.956;2023-02-18T08:33:19;100459.84;;;10.41;100.00
64298;BME280;50639;53.270;7.956;2023-02-18T08:35:46;100463.69;;;10.45;100.00
64298;BME280;50639;53.270;7.956;2023-02-18T08:38:14;100475.38;;;10.51;100.00
64298;BME280;50639;53.270;7.956;2023-02-18T08:40:40;100340.50;;;10.54;100.00
64298;BME280;50639;53.270;7.956;2023-02-18T08:43:27;100393.06;;;10.61;100.00
64298;BME280;50639;53.270;7.956;2023-02-18T08:45:56;100436.66;;;10.63;100.00
64298;BME280;50639;53.270;7.956;2023-02-18T08:48:22;100407.44;;;10.67;100.00
64298;BME280;50639;53.270;7.956;2023-02-18T08:50:47;100408.84;;;10.69;100.00
64298;BME280;50639;53.270;7.956;2023-02-18T08:53:13;100383.59;;;10.70;100.00
64298;BME280;50639;53.270;7.956;2023-02-18T08:55:39;100352.94;;;10.71;100.00
64298;BME280;50639;53.270;7.956;2023-02-18T08:58:05;100365.09;;;10.74;100.00
64298;BME280;50639;53.270;7.956;2023-02-18T09:00:31;100356.06;;;10.80;100.00
64298;BME280;50639;53.270;7.956;2023-02-18T09:02:57;100354.78;;;10.82;100.00
64298;BME280;50639;53.270;7.956;2023-02-18T09:05:23;100336.88;;;10.88;100.00
64298;BME280;50639;53.270;7.956;2023-02-18T09:07:51;100341.44;;;10.87;100.00
64298;BME280;50639;53.270;7.956;2023-02-18T09:10:18;100334.66;;;10.85;100.00
64298;BME280;50639;53.270;7.956;2023-02-18T09:12:44;100272.56;;;10.86;100.00
64298;BME280;50639;53.270;7.956;2023-02-18T09:15:09;100303.19;;;10.85;100.00
64298;BME280;50639;53.270;7.956;2023-02-18T09:17:35;100275.25;;;10.86;100.00
64298;BME280;50639;53.270;7.956;2023-02-18T09:20:01;100304.03;;;10.86;100.00
64298;BME280;50639;53.270;7.956;2023-02-18T09:22:26;100290.81;;;10.84;100.00
64298;BME280;50639;53.270;7.956;2023-02-18T09:24:52;100311.59;;;10.89;100.00
64298;BME280;50639;53.270;7.956;2023-02-18T09:27:17;100291.41;;;10.86;100.00
64298;BME280;50639;53.270;7.956;2023-02-18T09:29:43;100317.47;;;10.86;100.00
64298;BME280;50639;53.270;7.956;2023-02-18T09:32:09;100320.72;;;10.88;100.00
64298;BME280;50639;53.270;7.956;2023-02-18T09:34:36;100347.63;;;10.88;100.00
64298;BME280;50639;53.270;7.956;2023-02-18T09:37:01;100374.28;;;10.89;100.00
64298;BME280;50639;53.270;7.956;2023-02-18T09:39:27;100373.56;;;10.94;100.00
64298;BME280;50639;53.270;7.956;2023-02-18T09:41:55;100351.03;;;10.83;100.00
64298;BME280;50639;53.270;7.956;2023-02-18T09:44:26;100348.00;;;10.80;100.00
64298;BME280;50639;53.270;7.956;2023-02-18T09:47:04;100413.13;;;10.82;100.00
64298;BME280;50639;53.270;7.956;2023-02-18T09:49:34;100366.00;;;10.79;100.00
64298;BME280;50639;53.270;7.956;2023-02-18T09:52:13;100439.19;;;10.81;100.00
64298;BME280;50639;53.270;7.956;2023-02-18T09:54:40;100467.38;;;10.79;100.00
64298;BME280;50639;53.270;7.956;2023-02-18T09:57:17;100413.88;;;10.66;100.00
64298;BME280;50639;53.270;7.956;2023-02-18T09:59:50;100490.19;;;10.65;100.00
64298;BME280;50639;53.270;7.956;2023-02-18T10:02:19;100515.69;;;10.74;100.00
64298;BME280;50639;53.270;7.956;2023-02-18T10:04:45;100498.47;;;10.75;100.00
64298;BME280;50639;53.270;7.956;2023-02-18T10:07:24;100418.19;;;10.67;100.00
64298;BME280;50639;53.270;7.956;2023-02-18T10:09:50;100494.63;;;10.71;100.00
64298;BME280;50639;53.270;7.956;2023-02-18T10:12:19;100501.53;;;10.67;100.00
64298;BME280;50639;53.270;7.956;2023-02-18T10:15:06;100573.78;;;10.75;100.00
64298;BME280;50639;53.270;7.956;2023-02-18T10:17:40;100484.94;;;10.70;100.00
64298;BME280;50639;53.270;7.956;2023-02-18T10:20:06;100472.53;;;10.69;100.00
64298;BME280;50639;53.270;7.956;2023-02-18T10:22:32;100555.09;;;10.68;100.00
64298;BME280;50639;53.270;7.956;2023-02-18T10:24:59;100552.03;;;10.65;100.00
64298;BME280;50639;53.270;7.956;2023-02-18T10:27:32;100487.75;;;10.63;100.00
64298;BME280;50639;53.270;7.956;2023-02-18T10:32:43;100578.69;;;10.66;100.00
64298;BME280;50639;53.270;7.956;2023-02-18T10:35:30;100567.00;;;10.61;100.00
64298;BME280;50639;53.270;7.956;2023-02-18T10:38:19;100636.78;;;10.67;100.00
64298;BME280;50639;53.270;7.956;2023-02-18T10:46:12;100552.41;;;10.68;100.00
64298;BME280;50639;53.270;7.956;2023-02-18T10:51:23;100584.66;;;10.68;100.00
64298;BME280;50639;53.270;7.956;2023-02-18T10:53:51;100508.66;;;10.61;100.00
64298;BME280;50639;53.270;7.956;2023-02-18T10:56:36;100514.28;;;10.60;100.00
64298;BME280;50639;53.270;7.956;2023-02-18T11:01:35;100498.16;;;10.60;100.00
64298;BME280;50639;53.270;7.956;2023-02-18T11:04:15;100437.94;;;10.61;100.00
64298;BME280;50639;53.270;7.956;2023-02-18T11:06:50;100454.91;;;10.61;100.00
64298;BME280;50639;53.270;7.956;2023-02-18T11:09:27;100449.28;;;10.63;100.00
64298;BME280;50639;53.270;7.956;2023-02-18T11:12:00;100525.50;;;10.68;100.00
64298;BME280;50639;53.270;7.956;2023-02-18T11:14:44;100501.91;;;10.70;100.00
64298;BME280;50639;53.270;7.956;2023-02-18T11:19:41;100576.00;;;10.78;100.00
64298;BME280;50639;53.270;7.956;2023-02-18T11:22:14;100561.50;;;10.79;100.00
64298;BME280;50639;53.270;7.956;2023-02-18T11:24:41;100521.16;;;10.79;100.00
64298;BME280;50639;53.270;7.956;2023-02-18T11:27:45;100539.41;;;10.77;100.00
64298;BME280;50639;53.270;7.956;2023-02-18T11:33:02;100603.47;;;10.80;100.00
64298;BME280;50639;53.270;7.956;2023-02-18T11:35:31;100631.41;;;10.79;100.00
64298;BME280;50639;53.270;7.956;2023-02-18T11:37:58;100749.28;;;10.82;100.00
64298;BME280;50639;53.270;7.956;2023-02-18T11:40:33;100738.38;;;10.77;100.00
64298;BME280;50639;53.270;7.956;2023-02-18T11:43:27;100809.03;;;10.72;100.00
64298;BME280;50639;53.270;7.956;2023-02-18T11:46:21;100866.75;;;10.70;100.00
64298;BME280;50639;53.270;7.956;2023-02-18T11:48:48;100946.97;;;10.73;100.00
64298;BME280;50639;53.270;7.956;2023-02-18T11:51:33;100950.03;;;10.76;100.00
64298;BME280;50639;53.270;7.956;2023-02-18T11:54:21;101000.91;;;10.78;100.00
64298;BME280;50639;53.270;7.956;2023-02-18T11:56:59;101095.34;;;10.88;100.00
64298;BME280;50639;53.270;7.956;2023-02-18T11:59:28;101053.22;;;10.82;100.00
64298;BME280;50639;53.270;7.956;2023-02-18T12:04:51;101202.16;;;10.81;100.00
64298;BME280;50639;53.270;7.956;2023-02-18T12:07:33;101260.53;;;10.80;100.00
64298;BME280;50639;53.270;7.956;2023-02-18T12:10:11;101362.69;;;10.87;100.00
64298;BME280;50639;53.270;7.956;2023-02-18T12:13:18;101485.81;;;10.91;100.00
64298;BME280;50639;53.270;7.956;2023-02-18T12:16:34;101586.81;;;10.94;100.00
64298;BME280;50639;53.270;7.956;2023-02-18T12:18:52;101837.69;;;11.03;100.00
64298;BME280;50639;53.270;7.956;2023-02-18T12:35:39;103043.84;;;11.30;100.00
64298;BME280;50639;53.270;7.956;2023-02-18T12:49:29;104861.75;;;11.66;100.00
64298;BME280;50639;53.270;7.956;2023-02-18T12:52:18;105269.66;;;11.68;100.00
64298;BME280;50639;53.270;7.956;2023-02-18T13:07:07;106487.81;;;11.69;100.00
64298;BME280;50639;53.270;7.956;2023-02-18T13:15:27;106797.84;;;11.72;100.00
64298;BME280;50639;53.270;7.956;2023-02-18T13:17:57;106941.63;;;11.74;100.00
64298;BME280;50639;53.270;7.956;2023-02-18T13:20:32;106884.19;;;11.72;100.00
64298;BME280;50639;53.270;7.956;2023-02-18T13:23:00;107034.09;;;11.78;100.00
64298;BME280;50639;53.270;7.956;2023-02-18T13:25:26;107076.38;;;11.78;100.00
64298;BME280;50639;53.270;7.956;2023-02-18T13:31:23;106760.50;;;11.65;100.00
64298;BME280;50639;53.270;7.956;2023-02-18T13:33:39;106910.56;;;11.67;100.00
64298;BME280;50639;53.270;7.956;2023-02-18T13:39:14;107021.31;;;11.64;100.00
64298;BME280;50639;53.270;7.956;2023-02-18T13:41:45;107069.56;;;11.70;100.00
64298;BME280;50639;53.270;7.956;2023-02-18T13:46:57;107291.25;;;11.80;100.00
64298;BME280;50639;53.270;7.956;2023-02-18T13:49:32;107469.19;;;11.83;100.00
64298;BME280;50639;53.270;7.956;2023-02-18T13:52:00;107478.97;;;11.86;100.00
64298;BME280;50639;53.270;7.956;2023-02-18T13:54:34;107350.66;;;11.79;100.00
64298;BME280;50639;53.270;7.956;2023-02-18T13:57:25;107680.47;;;11.87;100.00
64298;BME280;50639;53.270;7.956;2023-02-18T13:59:59;107675.06;;;11.87;100.00
64298;BME280;50639;53.270;7.956;2023-02-18T14:05:19;107649.31;;;11.80;100.00
64298;BME280;50639;53.270;7.956;2023-02-18T14:07:48;107916.38;;;11.83;100.00
64298;BME280;50639;53.270;7.956;2023-02-18T14:20:29;108138.38;;;11.89;100.00
64298;BME280;50639;53.270;7.956;2023-02-18T14:22:56;108041.56;;;11.80;100.00
64298;BME280;50639;53.270;7.956;2023-02-18T14:25:32;107874.16;;;11.82;100.00
64298;BME280;50639;53.270;7.956;2023-02-18T14:30:50;107180.56;;;11.63;100.00
64298;BME280;50639;53.270;7.956;2023-02-18T14:33:17;107071.97;;;11.59;100.00
64298;BME280;50639;53.270;7.956;2023-02-18T14:35:52;107095.28;;;11.60;100.00
64298;BME280;50639;53.270;7.956;2023-02-18T14:47:01;107267.31;;;11.55;100.00
64298;BME280;50639;53.270;7.956;2023-02-18T14:49:43;107154.25;;;11.51;100.00
64298;BME280;50639;53.270;7.956;2023-02-18T14:54:57;106736.44;;;11.46;100.00
64298;BME280;50639;53.270;7.956;2023-02-18T14:57:33;106637.16;;;11.53;100.00
64298;BME280;50639;53.270;7.956;2023-02-18T15:00:01;106659.69;;;11.52;100.00
64298;BME280;50639;53.270;7.956;2023-02-18T15:02:28;106675.03;;;11.51;100.00
64298;BME280;50639;53.270;7.956;2023-02-18T15:05:27;106728.19;;;11.49;100.00
64298;BME280;50639;53.270;7.956;2023-02-18T15:07:54;106485.25;;;11.38;100.00
64298;BME280;50639;53.270;7.956;2023-02-18T15:10:20;106472.66;;;11.39;100.00